Time;durP1;ratioP1;P1;durP2;ratioP2;P2;SDS_P1;SDS_P2;PMS_P1;PMS_P2;Temp;Humidity;BMP_temperature;BMP_pressure;BME280_temperature;BME280_humidity;BME280_pressure;Samples;Min_cycle;Max_cycle;Signal;HPM_P1;HPM_P2
2023/02/07 00:02:08;;;;;;;25.83;7.85;;;1.80;99.90;;;;;;5071655;28;20041;-60
2023/02/07 00:04:34;;;;;;;21.27;8.20;;;1.90;99.90;;;;;;5071445;28;20037;-60
2023/02/07 00:07:00;;;;;;;18.90;8.05;;;1.80;99.90;;;;;;5071404;28;20040;-60
2023/02/07 00:09:25;;;;;;;19.73;7.90;;;1.80;99.90;;;;;;5071556;28;20032;-60
2023/02/07 00:11:51;;;;;;;26.95;9.55;;;1.80;99.90;;;;;;5057384;28;20033;-60
2023/02/07 00:14:17;;;;;;;31.90;9.52;;;1.70;99.90;;;;;;5071535;28;20119;-61
2023/02/07 00:16:42;;;;;;;23.83;8.40;;;1.80;99.90;;;;;;5071634;28;20187;-61
2023/02/07 00:19:08;;;;;;;17.63;7.82;;;1.80;99.90;;;;;;5066570;28;20090;-61
2023/02/07 00:21:34;;;;;;;20.35;7.78;;;1.90;99.90;;;;;;5062455;28;20111;-60
2023/02/07 00:23:59;;;;;;;22.35;8.75;;;1.90;99.90;;;;;;5071159;28;20040;-61
2023/02/07 00:26:26;;;;;;;27.77;9.00;;;1.80;99.90;;;;;;5069921;28;20047;-61
2023/02/07 00:28:53;;;;;;;21.60;8.68;;;1.90;99.90;;;;;;5071452;28;20116;-61
2023/02/07 00:31:30;;;;;;;23.48;8.75;;;1.70;99.90;;;;;;5070291;28;20474;-60
2023/02/07 00:33:59;;;;;;;16.95;8.07;;;1.70;99.90;;;;;;5071399;28;20418;-60
2023/02/07 00:36:26;;;;;;;19.67;7.68;;;1.80;99.90;;;;;;5070203;28;20051;-60
2023/02/07 00:38:56;;;;;;;27.95;9.65;;;1.60;99.90;;;;;;5070877;28;20490;-60
2023/02/07 00:41:22;;;;;;;20.35;8.75;;;1.70;99.90;;;;;;5071308;28;20028;-61
2023/02/07 00:43:48;;;;;;;26.83;9.23;;;1.60;99.90;;;;;;5075000;28;20522;-60
2023/02/07 00:46:14;;;;;;;37.28;9.90;;;1.60;99.90;;;;;;5074736;28;20040;-60
2023/02/07 00:48:40;;;;;;;25.25;9.15;;;1.40;99.90;;;;;;5075260;28;20079;-60
2023/02/07 00:51:06;;;;;;;27.35;9.13;;;1.50;99.90;;;;;;5074814;28;20099;-61
2023/02/07 00:53:32;;;;;;;26.40;9.20;;;1.60;99.90;;;;;;5074535;28;20509;-60
2023/02/07 00:55:58;;;;;;;27.45;10.00;;;1.50;99.90;;;;;;5086066;28;20040;-61
2023/02/07 00:58:24;;;;;;;25.50;9.85;;;1.60;99.90;;;;;;5074800;28;20502;-60
2023/02/07 01:00:50;;;;;;;26.55;9.95;;;1.50;99.90;;;;;;5074529;28;20503;-60
2023/02/07 01:03:16;;;;;;;25.08;9.95;;;1.50;99.90;;;;;;5074908;28;20106;-60
2023/02/07 01:05:42;;;;;;;24.40;10.23;;;1.50;99.90;;;;;;5074567;28;20048;-60
2023/02/07 01:08:08;;;;;;;24.80;9.70;;;1.60;99.90;;;;;;5074450;28;20418;-61
2023/02/07 01:10:34;;;;;;;21.02;9.73;;;1.60;99.90;;;;;;5074466;28;20043;-60
2023/02/07 01:13:00;;;;;;;29.40;11.63;;;1.60;99.90;;;;;;5074448;28;20037;-61
2023/02/07 01:15:26;;;;;;;25.65;11.75;;;1.50;99.90;;;;;;5074369;28;20040;-61
2023/02/07 01:17:51;;;;;;;33.38;12.13;;;1.60;99.90;;;;;;5074238;28;20072;-60
2023/02/07 01:20:17;;;;;;;24.92;10.65;;;1.70;99.90;;;;;;5074263;28;20048;-60
2023/02/07 01:22:43;;;;;;;21.98;10.63;;;1.60;99.90;;;;;;5074346;28;20123;-60
2023/02/07 01:25:09;;;;;;;25.08;10.68;;;1.70;99.90;;;;;;5074124;28;20029;-61
2023/02/07 01:27:35;;;;;;;29.92;11.50;;;1.50;99.90;;;;;;5074352;28;20086;-61
2023/02/07 01:30:01;;;;;;;24.15;10.75;;;1.50;99.90;;;;;;5074250;28;20036;-60
2023/02/07 01:32:27;;;;;;;33.50;12.07;;;1.70;99.90;;;;;;5073993;28;20029;-60
2023/02/07 01:34:53;;;;;;;30.85;12.73;;;1.60;99.90;;;;;;5074333;28;20047;-60
2023/02/07 01:37:18;;;;;;;32.38;11.52;;;1.80;99.90;;;;;;5074235;28;20034;-61
2023/02/07 01:39:46;;;;;;;27.30;11.80;;;1.60;99.90;;;;;;5074290;28;20360;-61
2023/02/07 01:42:16;;;;;;;27.88;10.45;;;1.60;99.90;;;;;;5070325;28;20368;-61
2023/02/07 01:44:42;;;;;;;25.25;9.93;;;1.60;99.90;;;;;;5063938;28;20083;-61
2023/02/07 01:47:15;;;;;;;23.45;10.77;;;1.60;99.90;;;;;;5073591;28;20080;-61
2023/02/07 01:49:42;;;;;;;30.30;11.60;;;1.60;99.90;;;;;;5074084;28;20045;-60
2023/02/07 01:52:15;;;;;;;30.85;13.55;;;1.70;99.90;;;;;;5073613;28;20039;-60
2023/02/07 01:54:43;;;;;;;26.85;11.90;;;1.60;99.90;;;;;;5072301;28;20103;-60
2023/02/07 01:57:13;;;;;;;26.73;12.38;;;1.70;99.90;;;;;;5073969;28;20105;-60
2023/02/07 01:59:42;;;;;;;35.67;14.30;;;1.80;99.90;;;;;;5073516;28;20037;-60
2023/02/07 02:02:14;;;;;;;35.00;15.07;;;1.60;99.90;;;;;;5058532;28;20056;-60
2023/02/07 02:04:41;;;;;;;40.17;14.82;;;1.80;99.90;;;;;;5073659;28;20050;-60
2023/02/07 02:07:10;;;;;;;37.58;15.30;;;1.60;99.90;;;;;;5072075;28;20048;-61
2023/02/07 02:09:37;;;;;;;37.03;15.48;;;1.50;99.90;;;;;;5073409;28;20036;-61
2023/02/07 02:12:39;;;;;;;30.95;13.23;;;1.80;99.90;;;;;;5072013;28;20040;-60
2023/02/07 02:15:17;;;;;;;28.95;14.23;;;1.60;99.90;;;;;;5073230;28;20032;-60
2023/02/07 02:17:55;;;;;;;39.05;15.45;;;1.50;99.90;;;;;;5068359;28;20055;-60
2023/02/07 02:20:57;;;;;;;30.60;12.93;;;1.60;99.90;;;;;;5066134;28;20163;-61
2023/02/07 02:24:00;;;;;;;28.65;14.32;;;1.80;99.90;;;;;;5066547;28;20055;-60
2023/02/07 02:26:59;;;;;;;29.63;12.60;;;1.50;99.90;;;;;;5057912;28;20082;-60
2023/02/07 02:29:27;;;;;;;32.55;13.23;;;1.50;99.90;;;;;;5073071;28;20033;-61
2023/02/07 02:32:30;;;;;;;33.30;15.90;;;1.80;99.90;;;;;;5071874;28;20041;-60
2023/02/07 02:34:58;;;;;;;32.83;15.65;;;1.80;99.90;;;;;;5064800;28;20040;-62
2023/02/07 02:37:49;;;;;;;36.53;15.15;;;1.60;99.90;;;;;;5072869;28;20040;-60
2023/02/07 02:40:38;;;;;;;41.13;15.80;;;1.60;99.90;;;;;;5046140;28;20085;-61
2023/02/07 02:43:13;;;;;;;34.10;14.77;;;1.40;99.90;;;;;;5072399;28;20056;-61
2023/02/07 02:45:43;;;;;;;43.85;16.02;;;1.70;99.90;;;;;;5072645;28;20032;-61
2023/02/07 02:48:11;;;;;;;48.30;17.30;;;1.70;99.90;;;;;;5072696;28;20040;-61
2023/02/07 02:50:38;;;;;;;50.63;19.77;;;1.70;99.90;;;;;;5072679;28;20040;-60
2023/02/07 02:53:04;;;;;;;35.00;19.13;;;1.70;99.90;;;;;;5072515;28;20087;-60
2023/02/07 02:55:32;;;;;;;38.67;16.67;;;1.60;99.90;;;;;;5072472;28;20499;-61
2023/02/07 02:58:15;;;;;;;39.33;18.80;;;1.60;99.90;;;;;;5072526;28;20071;-60
2023/02/07 03:01:10;;;;;;;37.45;17.40;;;1.70;99.90;;;;;;5072244;28;20307;-60
2023/02/07 03:03:53;;;;;;;33.83;16.20;;;1.70;99.90;;;;;;5072276;28;20079;-61
2023/02/07 03:06:25;;;;;;;48.05;19.38;;;1.50;99.90;;;;;;5071923;28;20046;-60
2023/02/07 03:09:02;;;;;;;43.95;16.90;;;1.60;99.90;;;;;;5072070;28;20131;-61
2023/02/07 03:11:30;;;;;;;36.53;16.67;;;1.40;99.90;;;;;;5072105;28;20119;-61
2023/02/07 03:14:23;;;;;;;46.25;19.73;;;1.30;99.90;;;;;;5071987;28;20040;-61
2023/02/07 03:17:05;;;;;;;39.97;17.98;;;1.30;99.90;;;;;;5071881;28;20506;-61
2023/02/07 03:19:33;;;;;;;33.70;17.60;;;1.60;99.90;;;;;;5072218;28;20379;-61
2023/02/07 03:22:09;;;;;;;36.53;17.70;;;1.40;99.90;;;;;;5072116;28;20500;-61
2023/02/07 03:24:46;;;;;;;45.08;19.17;;;1.20;99.90;;;;;;5072047;28;20482;-61
2023/02/07 03:27:17;;;;;;;43.42;20.52;;;1.10;99.90;;;;;;5071811;28;20112;-60
2023/02/07 03:29:46;;;;;;;37.17;18.98;;;1.10;99.90;;;;;;5072128;28;20040;-60
2023/02/07 03:32:13;;;;;;;37.45;18.83;;;1.50;99.90;;;;;;5070947;28;20059;-60
2023/02/07 03:34:54;;;;;;;44.10;20.95;;;1.10;99.90;;;;;;5071577;28;20111;-61
2023/02/07 03:37:34;;;;;;;37.97;19.45;;;1.00;99.90;;;;;;5071854;28;20486;-62
2023/02/07 03:40:00;;;;;;;43.25;20.20;;;1.20;99.90;;;;;;5070565;28;20121;-60
2023/02/07 03:42:39;;;;;;;29.95;18.52;;;1.20;99.90;;;;;;5071904;28;20072;-61
2023/02/07 03:45:10;;;;;;;39.13;19.20;;;1.20;99.90;;;;;;5045106;28;20040;-60
2023/02/07 03:47:36;;;;;;;40.50;18.73;;;1.30;99.90;;;;;;5072154;28;20473;-61
2023/02/07 03:50:02;;;;;;;35.08;17.88;;;1.20;99.90;;;;;;5071531;28;20047;-61
2023/02/07 03:52:28;;;;;;;47.88;20.35;;;0.90;99.90;;;;;;5071626;28;20033;-61
2023/02/07 03:54:53;;;;;;;49.05;20.17;;;0.90;99.90;;;;;;5071529;28;20043;-61
2023/02/07 03:57:19;;;;;;;42.95;21.08;;;1.20;99.90;;;;;;5071796;28;20032;-60
2023/02/07 03:59:44;;;;;;;48.28;20.88;;;0.80;99.90;;;;;;5071530;28;20446;-60
2023/02/07 04:02:10;;;;;;;36.83;19.25;;;0.90;99.90;;;;;;5071348;28;20052;-60
2023/02/07 04:04:36;;;;;;;35.67;18.92;;;1.10;99.90;;;;;;5058259;28;20041;-60
2023/02/07 04:07:01;;;;;;;37.58;17.88;;;1.00;99.90;;;;;;5070802;28;20504;-60
2023/02/07 04:09:27;;;;;;;34.45;18.30;;;1.00;99.90;;;;;;5072056;28;20570;-60
2023/02/07 04:11:53;;;;;;;35.13;18.45;;;1.00;99.90;;;;;;5071348;28;20486;-60
2023/02/07 04:14:20;;;;;;;36.88;19.85;;;1.00;99.90;;;;;;5071473;28;20040;-60
2023/02/07 04:16:46;;;;;;;42.38;19.63;;;1.00;99.90;;;;;;5073699;28;20040;-60
2023/02/07 04:19:12;;;;;;;41.75;20.25;;;0.80;99.90;;;;;;5075535;28;20102;-60
2023/02/07 04:21:37;;;;;;;33.10;19.33;;;0.90;99.90;;;;;;5075327;28;20474;-60
2023/02/07 04:24:03;;;;;;;36.45;20.65;;;0.90;99.90;;;;;;5075393;28;20123;-60
2023/02/07 04:26:29;;;;;;;33.20;18.58;;;0.80;99.90;;;;;;5075334;28;20122;-60
2023/02/07 04:28:55;;;;;;;37.33;19.10;;;0.80;99.90;;;;;;5075047;28;20048;-60
2023/02/07 04:31:21;;;;;;;40.05;19.75;;;0.90;99.90;;;;;;5075148;28;20128;-60
2023/02/07 04:33:47;;;;;;;38.17;20.25;;;0.70;99.90;;;;;;5073693;28;20051;-60
2023/02/07 04:36:13;;;;;;;37.80;21.27;;;0.80;99.90;;;;;;5072473;28;20040;-60
2023/02/07 04:38:39;;;;;;;45.28;20.75;;;0.70;99.90;;;;;;5075027;28;20036;-60
2023/02/07 04:41:05;;;;;;;39.28;19.95;;;0.60;99.90;;;;;;5074887;28;20043;-61
2023/02/07 04:43:33;;;;;;;37.13;19.40;;;0.60;99.90;;;;;;5074724;28;20051;-60
2023/02/07 04:45:59;;;;;;;39.00;19.77;;;0.70;99.90;;;;;;5075090;28;20032;-60
2023/02/07 04:48:25;;;;;;;46.33;20.30;;;0.70;99.90;;;;;;5074819;28;20367;-61
2023/02/07 04:50:51;;;;;;;42.10;20.50;;;0.70;99.90;;;;;;5073351;28;20047;-60
2023/02/07 04:53:16;;;;;;;37.00;19.90;;;0.70;99.90;;;;;;5073773;28;20052;-60
2023/02/07 04:55:42;;;;;;;38.80;19.08;;;0.70;99.90;;;;;;5073516;28;20044;-60
2023/02/07 04:58:08;;;;;;;44.88;20.10;;;0.70;99.90;;;;;;5065800;28;20447;-60
2023/02/07 05:00:34;;;;;;;40.78;19.58;;;0.60;99.90;;;;;;5069809;28;20055;-60
2023/02/07 05:02:59;;;;;;;37.05;20.45;;;0.40;99.90;;;;;;5074738;28;20078;-60
2023/02/07 05:05:25;;;;;;;52.72;20.40;;;0.50;99.90;;;;;;5074433;28;20047;-60
2023/02/07 05:07:51;;;;;;;35.17;20.55;;;0.50;99.90;;;;;;5074497;28;20054;-60
2023/02/07 05:10:16;;;;;;;37.15;19.35;;;0.30;99.90;;;;;;5074505;28;20039;-60
2023/02/07 05:12:42;;;;;;;34.97;19.63;;;0.50;99.90;;;;;;5074466;28;20039;-60
2023/02/07 05:15:08;;;;;;;34.85;19.88;;;0.50;99.90;;;;;;5074312;28;20037;-60
2023/02/07 05:17:34;;;;;;;37.15;19.92;;;0.40;99.90;;;;;;5074178;28;20044;-64
2023/02/07 05:20:00;;;;;;;39.53;19.95;;;0.30;99.90;;;;;;5073067;28;20124;-64
2023/02/07 05:22:26;;;;;;;32.22;18.58;;;0.40;99.90;;;;;;5072974;28;20570;-64
2023/02/07 05:24:52;;;;;;;35.20;19.23;;;0.40;99.90;;;;;;5073878;28;20568;-64
2023/02/07 05:27:17;;;;;;;39.97;19.23;;;0.30;99.90;;;;;;5073489;28;20032;-65
2023/02/07 05:29:43;;;;;;;31.30;17.90;;;0.30;99.90;;;;;;5073753;28;20424;-64
2023/02/07 05:34:57;;;;;;;38.45;17.73;;;0.30;99.90;;;;;;5072483;28;20048;-64
2023/02/07 05:37:23;;;;;;;35.38;18.50;;;0.30;99.90;;;;;;5060666;28;20033;-64
2023/02/07 05:39:48;;;;;;;33.53;18.80;;;0.40;99.90;;;;;;5073044;28;20028;-64
2023/02/07 05:42:14;;;;;;;30.77;17.73;;;0.30;99.90;;;;;;5059805;28;20489;-64
2023/02/07 05:44:39;;;;;;;33.83;18.15;;;0.30;99.90;;;;;;5074035;28;20619;-64
2023/02/07 05:47:05;;;;;;;31.40;18.02;;;0.20;99.90;;;;;;5073477;28;20048;-65
2023/02/07 05:49:31;;;;;;;31.73;17.33;;;0.30;99.90;;;;;;5073661;28;20032;-65
2023/02/07 05:51:56;;;;;;;34.70;17.05;;;0.20;99.90;;;;;;5072413;28;20525;-65
2023/02/07 05:54:22;;;;;;;37.83;18.67;;;0.30;99.90;;;;;;5073320;28;20463;-65
2023/02/07 05:56:48;;;;;;;31.08;17.77;;;0.10;99.90;;;;;;5059537;28;20090;-64
2023/02/07 05:59:13;;;;;;;34.08;18.13;;;0.30;99.90;;;;;;5052132;28;20037;-65
2023/02/07 06:01:39;;;;;;;35.08;18.60;;;0.20;99.90;;;;;;5051887;28;20419;-64
2023/02/07 06:04:05;;;;;;;35.40;17.70;;;0.30;99.90;;;;;;5069365;28;20446;-64
2023/02/07 06:06:30;;;;;;;34.90;17.92;;;0.30;99.90;;;;;;5073284;28;20190;-65
2023/02/07 06:08:56;;;;;;;27.80;16.70;;;0.30;99.90;;;;;;5073337;28;20068;-65
2023/02/07 06:11:22;;;;;;;31.27;16.60;;;0.20;99.90;;;;;;5072229;28;20442;-65
2023/02/07 06:13:47;;;;;;;34.95;17.15;;;0.20;99.90;;;;;;5061026;28;20499;-65
2023/02/07 06:16:13;;;;;;;28.75;16.70;;;0.10;99.90;;;;;;5070893;28;20089;-65
2023/02/07 06:18:39;;;;;;;26.90;17.02;;;0.20;99.90;;;;;;5073067;28;20089;-65
2023/02/07 06:21:04;;;;;;;29.70;16.70;;;0.20;99.90;;;;;;5073162;28;20116;-65
2023/02/07 06:23:30;;;;;;;35.15;17.15;;;0.30;99.90;;;;;;5072013;28;20430;-65
2023/02/07 06:25:56;;;;;;;32.53;16.85;;;0.10;99.90;;;;;;5068332;28;20032;-65
2023/02/07 06:28:21;;;;;;;30.77;16.25;;;0.30;99.90;;;;;;5072512;28;20041;-65
2023/02/07 06:30:49;;;;;;;30.08;16.98;;;0.20;99.90;;;;;;5072713;28;20036;-65
2023/02/07 06:33:14;;;;;;;29.52;16.42;;;0.30;99.90;;;;;;5072691;28;20051;-65
2023/02/07 06:35:45;;;;;;;31.05;17.17;;;0.10;99.90;;;;;;5072528;28;20037;-65
2023/02/07 06:38:12;;;;;;;29.15;17.63;;;0.20;99.90;;;;;;5072611;28;20509;-65
2023/02/07 06:40:38;;;;;;;25.25;15.32;;;0.20;99.90;;;;;;5071568;28;20060;-65
2023/02/07 06:43:04;;;;;;;26.48;16.58;;;0.20;99.90;;;;;;5071137;28;20056;-65
2023/02/07 06:45:29;;;;;;;28.90;17.15;;;0.20;99.90;;;;;;5072257;28;20115;-65
2023/02/07 06:47:55;;;;;;;29.85;17.52;;;0.10;99.90;;;;;;5072623;28;20032;-65
2023/02/07 06:50:21;;;;;;;30.55;16.33;;;0.20;99.90;;;;;;5072069;28;20060;-65
2023/02/07 06:52:46;;;;;;;30.17;18.27;;;0.00;99.90;;;;;;5072433;28;20123;-65
2023/02/07 06:55:12;;;;;;;31.38;17.63;;;0.10;99.90;;;;;;5072068;28;20047;-65
2023/02/07 06:57:38;;;;;;;30.38;17.08;;;0.10;99.90;;;;;;5072082;28;20058;-65
2023/02/07 07:00:04;;;;;;;27.95;16.48;;;0.10;99.90;;;;;;5071819;28;20036;-65
2023/02/07 07:02:30;;;;;;;31.45;17.60;;;0.10;99.90;;;;;;5072150;28;20036;-65
2023/02/07 07:04:55;;;;;;;32.00;17.48;;;0.10;99.90;;;;;;5071634;28;20051;-65
2023/02/07 07:07:21;;;;;;;34.33;17.73;;;0.00;99.90;;;;;;5071839;28;20394;-65
2023/02/07 07:09:47;;;;;;;31.98;17.50;;;0.00;99.90;;;;;;5072060;28;20049;-65
2023/02/07 07:12:13;;;;;;;33.10;17.83;;;-0.10;99.90;;;;;;5071731;28;20079;-65
2023/02/07 07:14:38;;;;;;;31.42;17.98;;;0.00;99.90;;;;;;5072052;28;20086;-65
2023/02/07 07:17:04;;;;;;;23.13;16.27;;;0.00;99.90;;;;;;5071977;28;20105;-65
2023/02/07 07:19:29;;;;;;;32.35;17.42;;;-0.10;99.90;;;;;;5071955;28;20063;-65
2023/02/07 07:21:55;;;;;;;33.20;18.10;;;0.00;99.90;;;;;;5071805;28;20033;-65
2023/02/07 07:24:21;;;;;;;27.17;16.17;;;0.00;99.90;;;;;;5071494;28;20036;-65
2023/02/07 07:26:47;;;;;;;30.33;15.70;;;0.00;99.90;;;;;;5062916;28;20045;-65
2023/02/07 07:29:12;;;;;;;37.58;17.92;;;-0.10;99.90;;;;;;5069932;28;20040;-65
2023/02/07 07:31:38;;;;;;;33.28;16.27;;;0.10;99.90;;;;;;5051614;28;20040;-65
2023/02/07 07:34:04;;;;;;;27.00;15.30;;;0.00;99.90;;;;;;5063252;28;20441;-65
2023/02/07 07:36:29;;;;;;;30.63;16.63;;;0.10;99.90;;;;;;5071587;28;20039;-65
2023/02/07 07:38:55;;;;;;;27.48;14.90;;;0.10;99.90;;;;;;5071514;28;20044;-65
2023/02/07 07:41:22;;;;;;;29.67;16.67;;;0.20;99.90;;;;;;5071286;28;20050;-65
2023/02/07 07:43:48;;;;;;;28.45;16.48;;;0.30;99.90;;;;;;5071580;28;20048;-62
2023/02/07 07:46:13;;;;;;;31.25;16.63;;;0.40;99.90;;;;;;5071679;28;20056;-62
2023/02/07 07:48:39;;;;;;;23.00;14.93;;;0.60;99.90;;;;;;5071688;28;20036;-62
2023/02/07 07:51:05;;;;;;;29.42;16.13;;;0.90;99.90;;;;;;5071245;28;20047;-62
2023/02/07 07:53:31;;;;;;;25.50;15.25;;;1.00;99.90;;;;;;5043410;28;20041;-61
2023/02/07 07:55:57;;;;;;;23.67;14.30;;;1.20;99.90;;;;;;5070529;28;20032;-62
2023/02/07 07:58:24;;;;;;;25.50;14.95;;;1.30;99.90;;;;;;5069399;28;20567;-62
2023/02/07 08:00:50;;;;;;;24.70;14.30;;;1.50;99.90;;;;;;5071336;28;20513;-62
2023/02/07 08:03:18;;;;;;;25.73;15.75;;;1.60;99.90;;;;;;5071504;28;20048;-62
2023/02/07 08:05:44;;;;;;;27.02;15.13;;;1.70;99.90;;;;;;5053862;28;20098;-61
2023/02/07 08:08:10;;;;;;;28.15;14.75;;;1.70;99.90;;;;;;5071720;28;20109;-62
2023/02/07 08:10:37;;;;;;;26.80;16.55;;;1.70;99.90;;;;;;5065690;28;20033;-62
2023/02/07 08:13:02;;;;;;;27.30;16.20;;;1.70;99.90;;;;;;5062998;28;20072;-62
2023/02/07 08:15:28;;;;;;;34.60;15.73;;;1.80;99.90;;;;;;5070379;28;20087;-62
2023/02/07 08:17:54;;;;;;;23.20;14.85;;;1.80;99.90;;;;;;5069269;28;20094;-62
2023/02/07 08:20:19;;;;;;;24.98;15.73;;;1.80;99.90;;;;;;5071188;28;20445;-62
2023/02/07 08:22:45;;;;;;;26.40;15.70;;;1.90;99.90;;;;;;5071231;28;20492;-62
2023/02/07 08:25:11;;;;;;;28.17;16.25;;;2.10;99.90;;;;;;5070849;28;20036;-62
2023/02/07 08:27:37;;;;;;;24.05;16.25;;;2.30;99.90;;;;;;5059123;28;20036;-62
2023/02/07 08:30:06;;;;;;;24.42;14.73;;;2.50;99.90;;;;;;5053138;28;20033;-62
2023/02/07 08:32:32;;;;;;;24.65;15.18;;;2.80;99.90;;;;;;5058384;28;20107;-62
2023/02/07 08:34:57;;;;;;;24.35;15.27;;;3.10;99.90;;;;;;5069497;28;20562;-62
2023/02/07 08:37:23;;;;;;;20.55;15.00;;;3.20;99.90;;;;;;5071112;28;20047;-62
2023/02/07 08:39:51;;;;;;;27.40;15.40;;;3.40;99.90;;;;;;5069642;28;20109;-62
2023/02/07 08:42:21;;;;;;;24.83;14.50;;;3.80;99.90;;;;;;5071201;28;20032;-62
2023/02/07 08:44:47;;;;;;;19.67;13.90;;;3.90;99.90;;;;;;5056832;28;20044;-61
2023/02/07 08:47:13;;;;;;;20.83;13.70;;;4.10;99.90;;;;;;5070109;28;20051;-62
2023/02/07 08:49:39;;;;;;;21.27;14.10;;;4.30;99.90;;;;;;5070860;28;20040;-61
2023/02/07 08:52:06;;;;;;;19.48;13.02;;;4.50;99.90;;;;;;5070913;28;20116;-61
2023/02/07 08:54:32;;;;;;;21.27;13.95;;;4.70;99.90;;;;;;5070754;28;20440;-61
2023/02/07 08:56:57;;;;;;;22.48;13.70;;;4.80;99.90;;;;;;5066049;28;20040;-61
2023/02/07 08:59:23;;;;;;;19.50;12.88;;;5.00;99.90;;;;;;5050449;28;20032;-61
2023/02/07 09:01:49;;;;;;;15.57;12.10;;;5.20;99.90;;;;;;5050389;28;20089;-62
2023/02/07 09:04:14;;;;;;;22.75;13.48;;;5.40;99.90;;;;;;5063654;28;20127;-61
2023/02/07 09:06:40;;;;;;;23.38;13.15;;;5.20;99.90;;;;;;5074284;28;20036;-62
2023/02/07 09:09:06;;;;;;;19.23;12.73;;;5.30;99.90;;;;;;5074257;28;20048;-61
2023/02/07 09:11:32;;;;;;;17.90;12.52;;;5.40;99.90;;;;;;5060551;28;20072;-61
2023/02/07 09:13:58;;;;;;;17.45;12.30;;;5.50;99.90;;;;;;5074438;28;20554;-61
2023/02/07 09:16:23;;;;;;;17.60;13.60;;;5.40;99.90;;;;;;5074378;28;20044;-61
2023/02/07 09:18:50;;;;;;;19.70;12.43;;;5.50;99.90;;;;;;5074231;28;20501;-61
2023/02/07 09:21:17;;;;;;;18.90;13.65;;;5.60;99.90;;;;;;5073896;28;20544;-61
2023/02/07 09:23:43;;;;;;;18.42;11.90;;;5.60;99.90;;;;;;5074070;28;20127;-61
2023/02/07 09:26:14;;;;;;;17.23;12.02;;;5.60;99.90;;;;;;5074127;28;20490;-61
2023/02/07 09:28:40;;;;;;;23.00;13.50;;;5.40;99.90;;;;;;5055698;28;20445;-61
2023/02/07 09:31:10;;;;;;;19.90;13.05;;;5.50;99.90;;;;;;5055071;28;20040;-61
2023/02/07 09:33:36;;;;;;;17.33;12.43;;;5.40;99.90;;;;;;5061060;28;20044;-61
2023/02/07 09:36:02;;;;;;;19.45;12.13;;;5.40;99.90;;;;;;5073745;28;20039;-61
2023/02/07 09:38:28;;;;;;;18.00;12.18;;;5.50;99.90;;;;;;5074265;28;20473;-62
2023/02/07 09:40:55;;;;;;;17.17;12.02;;;5.40;99.90;;;;;;5073753;28;20032;-61
2023/02/07 09:43:46;;;;;;;18.65;12.65;;;5.30;99.90;;;;;;5073991;28;20443;-61
2023/02/07 09:46:18;;;;;;;17.25;11.18;;;5.20;99.90;;;;;;5073531;28;20044;-61
2023/02/07 09:49:18;;;;;;;19.88;12.80;;;5.20;99.90;;;;;;5073598;28;20040;-61
2023/02/07 09:51:44;;;;;;;21.42;13.95;;;5.00;99.90;;;;;;5031284;28;20123;-61
2023/02/07 09:54:12;;;;;;;17.35;11.95;;;5.00;99.90;;;;;;5031393;28;20546;-62
2023/02/07 09:56:40;;;;;;;20.70;12.50;;;5.10;99.90;;;;;;5030749;28;20034;-61
2023/02/07 09:59:28;;;;;;;18.48;11.68;;;5.00;99.90;;;;;;5021225;28;20037;-62
2023/02/07 10:01:59;;;;;;;16.65;12.52;;;4.70;99.90;;;;;;5031169;28;20084;-62
2023/02/07 10:04:37;;;;;;;16.50;11.68;;;4.80;99.90;;;;;;5014602;28;20049;-62
2023/02/07 10:07:08;;;;;;;15.27;11.57;;;4.70;99.90;;;;;;5030999;28;20042;-61
2023/02/07 10:09:39;;;;;;;16.08;11.90;;;4.60;99.90;;;;;;5031158;28;20077;-61
2023/02/07 10:12:35;;;;;;;17.85;12.10;;;4.60;99.90;;;;;;5031076;28;20049;-61
2023/02/07 10:15:17;;;;;;;18.30;11.70;;;4.60;99.90;;;;;;5030742;28;20492;-61
2023/02/07 10:18:16;;;;;;;18.48;12.57;;;4.60;99.90;;;;;;5030661;28;20060;-61
2023/02/07 10:20:54;;;;;;;16.77;11.82;;;4.80;99.90;;;;;;5013021;28;20085;-61
2023/02/07 10:23:26;;;;;;;17.63;11.82;;;4.90;99.90;;;;;;5019903;28;20041;-61
2023/02/07 10:26:01;;;;;;;18.58;11.98;;;4.90;99.90;;;;;;5030785;28;20076;-61
2023/02/07 10:28:27;;;;;;;17.40;11.25;;;4.90;99.90;;;;;;5066712;28;20051;-62
2023/02/07 10:30:57;;;;;;;22.65;12.52;;;5.10;99.90;;;;;;5071583;28;20425;-62
2023/02/07 10:33:33;;;;;;;23.38;12.23;;;5.20;99.90;;;;;;5072891;28;20040;-61
2023/02/07 10:36:03;;;;;;;19.48;12.07;;;5.10;99.90;;;;;;5072625;28;20189;-60
2023/02/07 10:38:47;;;;;;;17.67;11.65;;;5.20;99.90;;;;;;5072708;28;20032;-61
2023/02/07 10:41:24;;;;;;;20.10;12.43;;;5.30;99.90;;;;;;5072510;28;20566;-62
2023/02/07 10:43:50;;;;;;;18.00;12.02;;;5.30;99.90;;;;;;5072686;28;20043;-61
2023/02/07 10:46:19;;;;;;;19.05;13.65;;;5.30;99.90;;;;;;5072365;28;20505;-62
2023/02/07 10:48:45;;;;;;;20.42;12.63;;;5.30;99.90;;;;;;5072410;28;20048;-61
2023/02/07 10:51:29;;;;;;;20.13;12.93;;;5.20;99.90;;;;;;5071012;28;20044;-62
2023/02/07 10:54:03;;;;;;;23.50;13.55;;;5.20;99.90;;;;;;5072479;28;20044;-62
2023/02/07 10:56:32;;;;;;;20.60;13.63;;;5.40;99.90;;;;;;5072235;28;20037;-62
2023/02/07 10:58:58;;;;;;;;;;;5.20;99.90;;;;;;5057879;28;20453;-61
2023/02/07 11:01:27;;;;;;;19.00;13.50;;;5.40;99.90;;;;;;5051410;28;19931;-61
2023/02/07 11:03:53;;;;;;;23.40;14.07;;;5.40;99.90;;;;;;5059232;28;20055;-61
2023/02/07 11:06:28;;;;;;;20.60;13.07;;;5.30;99.90;;;;;;5072609;28;20388;-61
2023/02/07 11:09:22;;;;;;;25.55;13.90;;;5.30;99.90;;;;;;5056733;28;20044;-61
2023/02/07 11:11:50;;;;;;;24.92;15.07;;;5.30;99.90;;;;;;5071929;28;20473;-61
2023/02/07 11:14:20;;;;;;;24.15;14.07;;;5.40;99.90;;;;;;5071736;28;20044;-61
2023/02/07 11:16:47;;;;;;;21.60;14.20;;;5.40;99.90;;;;;;5071813;28;20040;-61
2023/02/07 11:19:20;;;;;;;21.15;13.05;;;5.30;99.90;;;;;;5070702;28;20036;-61
2023/02/07 11:21:47;;;;;;;19.40;12.93;;;5.40;99.90;;;;;;5071804;28;20028;-61
2023/02/07 11:24:24;;;;;;;19.10;13.32;;;5.50;99.90;;;;;;5071782;28;20044;-61
2023/02/07 11:26:52;;;;;;;20.83;14.13;;;5.40;99.90;;;;;;5070161;28;20051;-61
2023/02/07 11:29:20;;;;;;;23.95;14.90;;;5.40;99.90;;;;;;5062871;28;20076;-61
2023/02/07 11:31:47;;;;;;;25.25;15.02;;;5.50;99.90;;;;;;5057644;28;20036;-61
2023/02/07 11:34:41;;;;;;;21.08;13.57;;;5.70;99.90;;;;;;5071591;28;20051;-62
2023/02/07 11:37:24;;;;;;;21.92;14.63;;;5.60;99.90;;;;;;5071913;28;20044;-61
2023/02/07 11:39:53;;;;;;;20.77;14.07;;;5.80;99.90;;;;;;5066071;28;20049;-61
2023/02/07 11:42:25;;;;;;;22.42;14.70;;;6.20;99.90;;;;;;5063596;28;20059;-61
2023/02/07 11:44:51;;;;;;;24.70;14.75;;;6.20;99.90;;;;;;5071452;28;20037;-61
2023/02/07 11:47:27;;;;;;;27.02;14.98;;;6.10;99.90;;;;;;5071546;28;20482;-61
2023/02/07 11:50:33;;;;;;;21.92;14.30;;;6.30;99.90;;;;;;5070494;28;20040;-61
2023/02/07 11:53:00;;;;;;;23.50;14.13;;;6.30;99.90;;;;;;5029136;28;20050;-61
2023/02/07 11:55:35;;;;;;;27.33;15.15;;;6.40;99.90;;;;;;5029276;28;20391;-61
2023/02/07 11:58:17;;;;;;;22.35;14.40;;;6.60;99.90;;;;;;5029185;28;20486;-61
2023/02/07 12:00:43;;;;;;;22.75;14.00;;;6.60;99.90;;;;;;5029210;28;20088;-61
2023/02/07 12:03:30;;;;;;;25.98;15.38;;;6.80;99.90;;;;;;5029281;28;20053;-61
2023/02/07 12:05:59;;;;;;;22.40;15.43;;;6.60;99.90;;;;;;5029260;28;20037;-61
2023/02/07 12:08:28;;;;;;;21.35;14.75;;;6.90;99.90;;;;;;5026510;28;20143;-62
2023/02/07 12:10:58;;;;;;;20.92;14.30;;;6.70;99.90;;;;;;5022391;28;20056;-61
2023/02/07 12:13:30;;;;;;;25.98;15.45;;;7.00;99.90;;;;;;5023653;28;20053;-61
2023/02/07 12:16:02;;;;;;;27.40;15.25;;;7.10;99.90;;;;;;5022494;28;20041;-61
2023/02/07 12:18:36;;;;;;;24.23;15.57;;;7.30;99.90;;;;;;5029077;28;20488;-61
2023/02/07 12:21:26;;;;;;;22.02;14.80;;;7.60;99.90;;;;;;5029148;28;20384;-61
2023/02/07 12:24:18;;;;;;;24.60;15.43;;;7.70;99.90;;;;;;5017608;28;20505;-61
2023/02/07 12:26:54;;;;;;;21.90;15.55;;;7.90;99.90;;;;;;5029033;28;20052;-62
2023/02/07 12:29:40;;;;;;;25.05;15.55;;;8.10;99.90;;;;;;5030250;28;20052;-61
2023/02/07 12:32:31;;;;;;;21.30;15.90;;;8.30;99.90;;;;;;5071284;28;20036;-61
2023/02/07 12:35:04;;;;;;;22.63;14.68;;;8.10;99.90;;;;;;5070829;28;20078;-61
2023/02/07 12:37:35;;;;;;;22.10;15.13;;;8.10;99.90;;;;;;5071125;28;20080;-61
2023/02/07 12:40:13;;;;;;;22.40;15.65;;;8.30;99.90;;;;;;5074921;28;20044;-61
2023/02/07 12:42:41;;;;;;;24.52;14.65;;;8.40;99.90;;;;;;5074666;28;20475;-62
2023/02/07 12:45:14;;;;;;;23.15;15.02;;;8.60;99.90;;;;;;5074754;28;20041;-62
2023/02/07 12:47:54;;;;;;;25.13;14.23;;;8.50;99.90;;;;;;5075004;28;20041;-61
2023/02/07 12:50:43;;;;;;;21.65;15.13;;;8.60;99.90;;;;;;5050621;28;20036;-61
2023/02/07 12:53:17;;;;;;;21.02;13.95;;;8.80;99.90;;;;;;5074523;28;20048;-61
2023/02/07 12:56:01;;;;;;;22.75;15.32;;;8.80;99.90;;;;;;5074522;28;20478;-61